No particular awareness of the weather is required.    There are no Weather-warnings


Meteo18 Weather Cam more information Meteo18 Weather Cam


Thunder radar more information blitzortung!


Rain radar more information rain snow radar


Visit our other weather sites:

Template documentation
and downloads

And another site



Weather Underground History page Text

Daily Summary for October 7, 2017 Units:  Metric    English   Both
« Previous Day
Next Day »
Daily Weekly Monthly Yearly Custom
  High: Low: Average:
Temperature: 15.7 °C 2.2 °C 9.8 °C
Dew Point: 8.8 °C 1.6 °C 6.1 °C
Humidity: 97 % 57 % 80 %
Wind Speed: 16.1 km/h 0.0 km/h 3.3 km/h
Wind Gust: 20.9 km/h - -
Wind:- - WSW
Pressure: 1029.3 hPa 1021.6 hPa -
Precipitation: 0.8 mm    
Historical Graphs
 
 
Tabular Data for October 7, 2017
Time Temperature Dew Point Pressure Wind Wind Speed Wind Gust Humidity Rainfall Rate (Hourly)
00:02 7.2 °C 5.7 °C 1028.7 hPa WNW 1.6 km/h 1.6 km/h 90 % 0.0 mm
00:07 7.1 °C 5.7 °C 1028.7 hPa WNW 1.6 km/h 3.2 km/h 91 % 0.0 mm
00:12 7.2 °C 6.0 °C 1028.7 hPa WNW 1.6 km/h 3.2 km/h 92 % 0.0 mm
00:17 7.1 °C 5.9 °C 1028.7 hPa WNW 1.6 km/h 3.2 km/h 92 % 0.0 mm
00:22 7.1 °C 5.9 °C 1028.7 hPa Calm   3.2 km/h 92 % 0.0 mm
00:27 7.0 °C 5.8 °C 1028.7 hPa WNW 1.6 km/h 1.6 km/h 92 % 0.0 mm
00:32 6.9 °C 5.7 °C 1028.7 hPa Calm   1.6 km/h 92 % 0.0 mm
00:42 7.3 °C 6.2 °C 1028.7 hPa Calm   1.6 km/h 93 % 0.0 mm
00:47 7.4 °C 6.0 °C 1028.7 hPa Calm   1.6 km/h 91 % 0.0 mm
00:52 7.1 °C 5.6 °C 1028.7 hPa Calm   1.6 km/h 90 % 0.0 mm
00:57 7.1 °C 5.9 °C 1028.7 hPa Calm   1.6 km/h 92 % 0.0 mm
01:02 7.4 °C 6.2 °C 1028.7 hPa Calm   1.6 km/h 92 % 0.0 mm
01:07 7.5 °C 6.1 °C 1028.7 hPa Calm   1.6 km/h 91 % 0.0 mm
01:12 7.6 °C 6.1 °C 1028.7 hPa Calm   1.6 km/h 90 % 0.0 mm
01:17 7.4 °C 5.9 °C 1028.7 hPa Calm   1.6 km/h 90 % 0.0 mm
01:22 7.2 °C 5.7 °C 1028.7 hPa Calm     90 % 0.0 mm
01:27 7.0 °C 5.5 °C 1028.7 hPa Calm     90 % 0.0 mm
01:32 6.8 °C 5.4 °C 1028.7 hPa Calm     91 % 0.0 mm
01:37 6.7 °C 5.3 °C 1028.7 hPa Calm     91 % 0.0 mm
01:42 6.7 °C 5.5 °C 1028.7 hPa NW 1.6 km/h   92 % 0.0 mm
01:47 6.6 °C 5.5 °C 1029.0 hPa WNW 1.6 km/h 1.6 km/h 93 % 0.0 mm
01:52 6.6 °C 5.5 °C 1029.0 hPa Calm   1.6 km/h 93 % 0.0 mm
01:57 6.3 °C 5.3 °C 1029.0 hPa Calm   1.6 km/h 93 % 0.0 mm
02:02 6.3 °C 5.3 °C 1029.0 hPa WNW 1.6 km/h 1.6 km/h 93 % 0.0 mm
02:12 6.2 °C 5.3 °C 1029.3 hPa Calm   1.6 km/h 94 % 0.0 mm
02:17 6.2 °C 5.3 °C 1029.3 hPa Calm   1.6 km/h 94 % 0.0 mm
02:22 6.2 °C 5.3 °C 1029.3 hPa Calm   1.6 km/h 94 % 0.0 mm
02:27 6.2 °C 5.3 °C 1029.3 hPa Calm   1.6 km/h 94 % 0.0 mm
02:32 6.2 °C 5.3 °C 1029.3 hPa Calm   1.6 km/h 94 % 0.0 mm
02:37 6.1 °C 5.2 °C 1029.3 hPa Calm   1.6 km/h 94 % 0.0 mm
02:42 6.2 °C 5.3 °C 1029.3 hPa Calm   1.6 km/h 94 % 0.0 mm
02:47 6.2 °C 5.3 °C 1029.3 hPa Calm   1.6 km/h 94 % 0.0 mm
02:52 6.2 °C 5.3 °C 1029.3 hPa Calm   1.6 km/h 94 % 0.0 mm
02:57 6.2 °C 5.3 °C 1029.3 hPa Calm     94 % 0.0 mm
03:02 6.0 °C 5.1 °C 1029.0 hPa Calm     94 % 0.0 mm
03:07 5.9 °C 5.0 °C 1029.3 hPa Calm     94 % 0.0 mm
03:12 5.9 °C 5.0 °C 1029.0 hPa Calm     94 % 0.0 mm
03:17 5.9 °C 5.0 °C 1029.0 hPa Calm     94 % 0.0 mm
03:22 5.9 °C 5.2 °C 1029.0 hPa Calm     95 % 0.0 mm
03:27 5.8 °C 5.1 °C 1028.7 hPa Calm     95 % 0.0 mm
03:32 5.8 °C 5.1 °C 1028.7 hPa Calm     95 % 0.0 mm
03:37 5.6 °C 4.7 °C 1028.7 hPa Calm     94 % 0.0 mm
03:42 5.3 °C 4.4 °C 1028.7 hPa Calm     94 % 0.0 mm
03:47 5.2 °C 4.3 °C 1028.7 hPa Calm     94 % 0.0 mm
03:52 5.2 °C 4.5 °C 1028.7 hPa Calm     95 % 0.0 mm
03:57 5.1 °C 4.2 °C 1028.3 hPa Calm     94 % 0.0 mm
04:02 5.1 °C 4.4 °C 1028.7 hPa Calm     95 % 0.0 mm
04:07 5.0 °C 4.3 °C 1028.3 hPa Calm     95 % 0.0 mm
04:12 4.8 °C 4.1 °C 1028.3 hPa Calm     95 % 0.0 mm
04:17 4.8 °C 4.1 °C 1028.3 hPa Calm     95 % 0.0 mm
04:22 4.8 °C 4.1 °C 1028.3 hPa Calm     95 % 0.0 mm
04:27 4.7 °C 4.0 °C 1028.3 hPa Calm     95 % 0.0 mm
04:32 4.7 °C 4.0 °C 1028.3 hPa Calm     95 % 0.0 mm
04:37 4.6 °C 3.9 °C 1028.3 hPa Calm     95 % 0.0 mm
04:47 4.3 °C 3.6 °C 1028.3 hPa Calm     95 % 0.0 mm
04:52 4.3 °C 3.6 °C 1028.3 hPa Calm     95 % 0.0 mm
04:57 4.4 °C 3.8 °C 1028.3 hPa Calm     96 % 0.0 mm
05:02 4.7 °C 4.1 °C 1028.3 hPa Calm   1.6 km/h 96 % 0.0 mm
05:07 4.7 °C 4.1 °C 1028.3 hPa Calm   1.6 km/h 96 % 0.0 mm
05:17 4.4 °C 3.7 °C 1028.3 hPa Calm   1.6 km/h 95 % 0.0 mm
05:22 4.4 °C 3.8 °C 1028.0 hPa Calm     96 % 0.0 mm
05:27 4.3 °C 3.7 °C 1028.3 hPa Calm     96 % 0.0 mm
05:32 4.3 °C 3.7 °C 1028.0 hPa Calm     96 % 0.0 mm
05:42 4.2 °C 3.6 °C 1028.0 hPa Calm     96 % 0.0 mm
05:47 4.2 °C 3.6 °C 1027.7 hPa Calm     96 % 0.0 mm
06:02 3.8 °C 3.2 °C 1028.0 hPa Calm   1.6 km/h 96 % 0.0 mm
06:07 3.9 °C 3.3 °C 1028.0 hPa Calm   1.6 km/h 96 % 0.0 mm
06:17 3.8 °C 3.2 °C 1028.0 hPa Calm     96 % 0.0 mm
06:22 3.7 °C 3.1 °C 1028.0 hPa SSE 1.6 km/h   96 % 0.0 mm
06:32 2.8 °C 1.9 °C 1028.0 hPa SE 1.6 km/h 3.2 km/h 94 % 0.0 mm
06:37 2.5 °C 1.8 °C 1028.0 hPa SSW 1.6 km/h 3.2 km/h 95 % 0.0 mm
06:42 2.4 °C 1.7 °C 1027.7 hPa Calm   3.2 km/h 95 % 0.0 mm
06:47 2.3 °C 1.6 °C 1028.0 hPa Calm   3.2 km/h 95 % 0.0 mm
06:52 2.4 °C 1.8 °C 1028.0 hPa Calm   3.2 km/h 96 % 0.0 mm
06:57 2.4 °C 1.8 °C 1028.0 hPa Calm     96 % 0.0 mm
07:02 2.5 °C 1.9 °C 1028.0 hPa Calm     96 % 0.0 mm
07:07 2.5 °C 1.9 °C 1028.0 hPa Calm     96 % 0.0 mm
07:12 2.5 °C 1.9 °C 1028.0 hPa Calm     96 % 0.0 mm
07:17 2.6 °C 2.0 °C 1028.0 hPa Calm     96 % 0.0 mm
07:22 2.7 °C 2.1 °C 1028.0 hPa Calm     96 % 0.0 mm
07:32 2.6 °C 2.0 °C 1028.0 hPa Calm     96 % 0.0 mm
07:37 2.7 °C 2.1 °C 1028.0 hPa Calm     96 % 0.0 mm
07:42 2.6 °C 2.0 °C 1027.7 hPa Calm     96 % 0.0 mm
07:47 2.4 °C 1.8 °C 1027.7 hPa Calm     96 % 0.0 mm
07:52 2.3 °C 1.7 °C 1028.0 hPa Calm     96 % 0.0 mm
07:57 2.2 °C 1.6 °C 1028.0 hPa Calm     96 % 0.0 mm
08:02 2.3 °C 1.7 °C 1028.0 hPa Calm     96 % 0.0 mm
08:07 2.3 °C 1.7 °C 1028.0 hPa Calm     96 % 0.0 mm
08:12 2.4 °C 1.8 °C 1028.0 hPa Calm     96 % 0.0 mm
08:17 2.5 °C 1.9 °C 1028.0 hPa Calm     96 % 0.0 mm
08:22 2.6 °C 2.0 °C 1028.0 hPa Calm     96 % 0.3 mm
08:27 2.7 °C 2.1 °C 1028.0 hPa Calm     96 % 0.3 mm
08:32 3.1 °C 2.5 °C 1028.0 hPa Calm     96 % 0.3 mm
08:42 3.3 °C 2.7 °C 1028.0 hPa Calm     96 % 0.3 mm
08:47 3.7 °C 3.3 °C 1028.0 hPa Calm     97 % 0.3 mm
08:52 4.1 °C 3.7 °C 1028.0 hPa Calm     97 % 0.3 mm
08:57 4.4 °C 4.0 °C 1028.0 hPa Calm     97 % 0.3 mm
09:02 4.6 °C 4.2 °C 1028.3 hPa Calm     97 % 0.3 mm
09:12 5.1 °C 4.7 °C 1028.0 hPa Calm   1.6 km/h 97 % 0.3 mm
09:17 5.7 °C 5.3 °C 1028.0 hPa Calm   1.6 km/h 97 % 0.0 mm
09:22 5.8 °C 5.2 °C 1028.0 hPa Calm   1.6 km/h 96 % 0.0 mm
09:27 5.7 °C 5.0 °C 1028.0 hPa Calm   1.6 km/h 95 % 0.0 mm
09:32 5.6 °C 4.7 °C 1028.0 hPa Calm   1.6 km/h 94 % 0.0 mm
09:37 5.7 °C 5.0 °C 1028.0 hPa Calm   1.6 km/h 95 % 0.0 mm
09:42 6.1 °C 5.4 °C 1028.0 hPa Calm   1.6 km/h 95 % 0.0 mm
09:47 6.6 °C 6.0 °C 1028.0 hPa Calm     96 % 0.0 mm
09:52 6.7 °C 6.0 °C 1028.0 hPa SSE 1.6 km/h 1.6 km/h 95 % 0.0 mm
09:57 6.7 °C 5.8 °C 1028.0 hPa SE 1.6 km/h 3.2 km/h 94 % 0.0 mm
10:02 6.9 °C 6.0 °C 1028.0 hPa SSE 1.6 km/h 4.8 km/h 94 % 0.0 mm
10:07 7.1 °C 6.2 °C 1027.7 hPa South 3.2 km/h 4.8 km/h 94 % 0.0 mm
10:12 7.2 °C 6.3 °C 1027.7 hPa Calm   4.8 km/h 94 % 0.0 mm
10:17 7.6 °C 6.7 °C 1027.7 hPa Calm   4.8 km/h 94 % 0.0 mm
10:22 7.9 °C 7.0 °C 1027.7 hPa Calm   4.8 km/h 94 % 0.0 mm
10:27 8.4 °C 7.5 °C 1027.7 hPa SE 1.6 km/h 4.8 km/h 94 % 0.0 mm
10:32 8.9 °C 7.8 °C 1027.7 hPa WSW 1.6 km/h 3.2 km/h 93 % 0.0 mm
10:42 9.3 °C 7.9 °C 1027.7 hPa SW 3.2 km/h 6.4 km/h 91 % 0.0 mm
10:52 9.8 °C 8.2 °C 1027.7 hPa ESE 4.8 km/h 6.4 km/h 90 % 0.0 mm
10:57 9.9 °C 8.2 °C 1027.7 hPa SW 3.2 km/h 6.4 km/h 89 % 0.0 mm
11:02 10.2 °C 8.6 °C 1027.7 hPa South 3.2 km/h 6.4 km/h 90 % 0.0 mm
11:07 10.6 °C 8.7 °C 1027.7 hPa SSW 4.8 km/h 6.4 km/h 88 % 0.0 mm
11:12 10.9 °C 8.6 °C 1027.7 hPa South 6.4 km/h 9.7 km/h 86 % 0.0 mm
11:17 11.1 °C 8.8 °C 1027.7 hPa SSW 3.2 km/h 12.9 km/h 86 % 0.0 mm
11:22 11.6 °C 8.8 °C 1027.3 hPa SW 8.0 km/h 12.9 km/h 83 % 0.0 mm
11:32 11.8 °C 8.3 °C 1027.3 hPa SW 9.7 km/h 14.5 km/h 79 % 0.0 mm
11:42 12.3 °C 8.2 °C 1027.3 hPa SW 9.7 km/h 12.9 km/h 76 % 0.0 mm
11:52 12.4 °C 8.1 °C 1027.3 hPa South 4.8 km/h 14.5 km/h 75 % 0.0 mm
11:57 12.7 °C 8.4 °C 1027.3 hPa SSW 4.8 km/h 14.5 km/h 75 % 0.0 mm
12:02 12.9 °C 8.4 °C 1027.3 hPa SSW 4.8 km/h 14.5 km/h 74 % 0.0 mm
12:07 12.8 °C 8.1 °C 1027.0 hPa SW 3.2 km/h 14.5 km/h 73 % 0.0 mm
12:12 12.9 °C 7.3 °C 1027.0 hPa SW 16.1 km/h 17.7 km/h 69 % 0.0 mm
12:22 13.1 °C 7.8 °C 1027.0 hPa SW 4.8 km/h 16.1 km/h 70 % 0.0 mm
12:32 13.3 °C 7.7 °C 1027.0 hPa SW 9.7 km/h 16.1 km/h 69 % 0.0 mm
12:42 13.4 °C 7.4 °C 1026.6 hPa WSW 8.0 km/h 17.7 km/h 67 % 0.0 mm
12:47 13.4 °C 7.4 °C 1026.6 hPa SW 12.9 km/h 17.7 km/h 67 % 0.0 mm
12:52 13.5 °C 7.9 °C 1026.6 hPa SW 6.4 km/h 17.7 km/h 69 % 0.0 mm
12:57 13.5 °C 7.5 °C 1026.6 hPa SW 11.3 km/h 17.7 km/h 67 % 0.0 mm
13:02 13.6 °C 7.6 °C 1026.6 hPa WSW 14.5 km/h 17.7 km/h 67 % 0.0 mm
13:07 13.7 °C 7.9 °C 1026.3 hPa SW 6.4 km/h 17.7 km/h 68 % 0.0 mm
13:12 13.9 °C 8.1 °C 1026.3 hPa WSW 12.9 km/h 17.7 km/h 68 % 0.0 mm
13:17 13.8 °C 7.3 °C 1026.3 hPa WSW 3.2 km/h 17.7 km/h 65 % 0.0 mm
13:22 13.9 °C 7.4 °C 1026.3 hPa WNW 6.4 km/h 16.1 km/h 65 % 0.0 mm
13:32 14.1 °C 7.2 °C 1026.3 hPa SW 8.0 km/h 14.5 km/h 63 % 0.0 mm
13:37 14.1 °C 7.2 °C 1026.3 hPa West 4.8 km/h 14.5 km/h 63 % 0.0 mm
13:42 14.1 °C 7.6 °C 1026.0 hPa WSW 4.8 km/h 12.9 km/h 65 % 0.0 mm
13:47 14.1 °C 7.2 °C 1026.0 hPa SSW 3.2 km/h 19.3 km/h 63 % 0.0 mm
13:52 14.1 °C 7.2 °C 1026.0 hPa West 6.4 km/h 19.3 km/h 63 % 0.0 mm
13:57 14.1 °C 7.2 °C 1026.0 hPa West 11.3 km/h 19.3 km/h 63 % 0.0 mm
14:07 14.1 °C 7.4 °C 1026.0 hPa WSW 6.4 km/h 17.7 km/h 64 % 0.0 mm
14:12 14.1 °C 7.4 °C 1026.0 hPa WSW 11.3 km/h 17.7 km/h 64 % 0.0 mm
14:17 14.1 °C 7.2 °C 1025.6 hPa WSW 8.0 km/h 17.7 km/h 63 % 0.0 mm
14:22 14.1 °C 7.2 °C 1025.6 hPa West 8.0 km/h 17.7 km/h 63 % 0.0 mm
14:27 14.3 °C 6.9 °C 1025.6 hPa WSW 8.0 km/h 17.7 km/h 61 % 0.0 mm
14:32 14.5 °C 7.3 °C 1025.3 hPa SW 9.7 km/h 16.1 km/h 62 % 0.0 mm
14:37 14.6 °C 6.9 °C 1025.3 hPa SW 11.3 km/h 16.1 km/h 60 % 0.0 mm
14:42 14.8 °C 7.1 °C 1025.3 hPa WSW 8.0 km/h 16.1 km/h 60 % 0.0 mm
14:47 14.9 °C 7.0 °C 1025.3 hPa WSW 8.0 km/h 16.1 km/h 59 % 0.0 mm
14:52 15.0 °C 7.5 °C 1025.3 hPa WSW 8.0 km/h 16.1 km/h 61 % 0.0 mm
14:57 14.8 °C 6.9 °C 1025.3 hPa West 3.2 km/h 20.9 km/h 59 % 0.0 mm
15:02 14.8 °C 7.1 °C 1024.9 hPa SW 12.9 km/h 20.9 km/h 60 % 0.0 mm
15:07 14.9 °C 7.2 °C 1024.9 hPa WSW 8.0 km/h 20.9 km/h 60 % 0.0 mm
15:12 15.1 °C 7.1 °C 1024.9 hPa West 8.0 km/h 19.3 km/h 59 % 0.0 mm
15:17 15.3 °C 7.3 °C 1024.9 hPa WSW 6.4 km/h 19.3 km/h 59 % 0.0 mm
15:27 15.1 °C 7.1 °C 1024.6 hPa SSW 6.4 km/h 19.3 km/h 59 % 0.0 mm
15:32 15.2 °C 7.2 °C 1024.6 hPa West 9.7 km/h 19.3 km/h 59 % 0.0 mm
15:37 15.2 °C 7.7 °C 1024.6 hPa West 4.8 km/h 19.3 km/h 61 % 0.0 mm
15:42 15.2 °C 7.7 °C 1024.6 hPa SW 6.4 km/h 17.7 km/h 61 % 0.0 mm
15:47 15.3 °C 8.1 °C 1024.3 hPa WSW 11.3 km/h 16.1 km/h 62 % 0.0 mm
15:52 15.3 °C 8.1 °C 1024.3 hPa SW 14.5 km/h 14.5 km/h 62 % 0.0 mm
15:57 15.2 °C 8.0 °C 1024.3 hPa WSW 8.0 km/h 14.5 km/h 62 % 0.0 mm
16:02 15.2 °C 8.0 °C 1024.3 hPa West 4.8 km/h 14.5 km/h 62 % 0.0 mm
16:07 15.4 °C 7.9 °C 1024.3 hPa SW 8.0 km/h 14.5 km/h 61 % 0.0 mm
16:12 15.5 °C 7.5 °C 1023.9 hPa Calm   17.7 km/h 59 % 0.0 mm
16:17 15.7 °C 7.5 °C 1023.9 hPa WSW 12.9 km/h 17.7 km/h 58 % 0.0 mm
16:22 15.5 °C 7.3 °C 1023.9 hPa West 11.3 km/h 19.3 km/h 58 % 0.0 mm
16:27 15.5 °C 7.3 °C 1023.9 hPa WSW 12.9 km/h 19.3 km/h 58 % 0.0 mm
16:37 15.4 °C 7.2 °C 1023.6 hPa SW 14.5 km/h 17.7 km/h 58 % 0.0 mm
16:42 15.3 °C 6.8 °C 1023.2 hPa West 9.7 km/h 19.3 km/h 57 % 0.0 mm
16:47 15.3 °C 7.1 °C 1023.2 hPa SW 6.4 km/h 19.3 km/h 58 % 0.0 mm
16:52 15.4 °C 7.2 °C 1023.2 hPa SW 3.2 km/h 19.3 km/h 58 % 0.0 mm
16:57 15.5 °C 7.0 °C 1023.2 hPa SW 14.5 km/h 19.3 km/h 57 % 0.0 mm
17:02 15.4 °C 6.9 °C 1023.2 hPa WSW 16.1 km/h 19.3 km/h 57 % 0.0 mm
17:07 15.3 °C 7.1 °C 1023.2 hPa West 12.9 km/h 19.3 km/h 58 % 0.0 mm
17:12 15.2 °C 7.2 °C 1023.2 hPa WSW 11.3 km/h 19.3 km/h 59 % 0.0 mm
17:17 15.2 °C 7.7 °C 1023.2 hPa SW 3.2 km/h 17.7 km/h 61 % 0.0 mm
17:22 15.1 °C 7.1 °C 1023.2 hPa WSW 9.7 km/h 17.7 km/h 59 % 0.0 mm
17:27 15.1 °C 7.4 °C 1023.2 hPa WSW 4.8 km/h 16.1 km/h 60 % 0.0 mm
17:32 15.1 °C 7.1 °C 1023.2 hPa WNW 6.4 km/h 12.9 km/h 59 % 0.0 mm
17:37 15.0 °C 6.8 °C 1023.2 hPa West 8.0 km/h 16.1 km/h 58 % 0.0 mm
17:42 15.1 °C 7.1 °C 1023.2 hPa WSW 4.8 km/h 16.1 km/h 59 % 0.0 mm
17:47 15.2 °C 7.5 °C 1023.2 hPa West 4.8 km/h 16.1 km/h 60 % 0.0 mm
17:52 15.1 °C 7.4 °C 1023.2 hPa West 4.8 km/h 12.9 km/h 60 % 0.0 mm
17:57 15.0 °C 7.3 °C 1023.2 hPa WSW 11.3 km/h 12.9 km/h 60 % 0.0 mm
18:02 14.9 °C 7.4 °C 1022.9 hPa West 4.8 km/h 14.5 km/h 61 % 0.0 mm
18:07 14.9 °C 7.4 °C 1022.9 hPa SW 3.2 km/h 14.5 km/h 61 % 0.0 mm
18:12 14.9 °C 7.4 °C 1022.9 hPa WSW 6.4 km/h 14.5 km/h 61 % 0.0 mm
18:17 14.7 °C 7.3 °C 1022.6 hPa WSW 3.2 km/h 12.9 km/h 61 % 0.0 mm
18:22 14.7 °C 7.5 °C 1022.6 hPa West 8.0 km/h 12.9 km/h 62 % 0.0 mm
18:32 14.6 °C 7.4 °C 1022.6 hPa WSW 4.8 km/h 14.5 km/h 62 % 0.0 mm
18:42 14.6 °C 7.4 °C 1022.2 hPa SW 6.4 km/h 11.3 km/h 62 % 0.0 mm
18:47 14.6 °C 7.4 °C 1022.2 hPa SW 3.2 km/h 9.7 km/h 62 % 0.0 mm
18:52 14.5 °C 7.5 °C 1022.6 hPa West 4.8 km/h 9.7 km/h 63 % 0.0 mm
18:57 14.3 °C 7.6 °C 1022.6 hPa West 3.2 km/h 9.7 km/h 64 % 0.0 mm
19:02 14.1 °C 7.6 °C 1022.6 hPa SW 3.2 km/h 9.7 km/h 65 % 0.0 mm
19:07 14.0 °C 7.5 °C 1022.6 hPa West 3.2 km/h 9.7 km/h 65 % 0.0 mm
19:12 13.8 °C 7.3 °C 1022.6 hPa West 3.2 km/h 8.0 km/h 65 % 0.0 mm
19:17 13.7 °C 7.5 °C 1022.6 hPa SW 3.2 km/h 8.0 km/h 66 % 0.0 mm
19:22 13.6 °C 7.4 °C 1022.6 hPa West 4.8 km/h 8.0 km/h 66 % 0.0 mm
19:27 13.6 °C 7.4 °C 1022.6 hPa WSW 4.8 km/h 9.7 km/h 66 % 0.0 mm
19:32 13.5 °C 7.5 °C 1022.6 hPa SW 4.8 km/h 9.7 km/h 67 % 0.0 mm
19:37 13.4 °C 7.4 °C 1022.9 hPa West 4.8 km/h 9.7 km/h 67 % 0.0 mm
19:42 13.4 °C 7.4 °C 1022.6 hPa WSW 6.4 km/h 8.0 km/h 67 % 0.0 mm
19:52 13.4 °C 7.4 °C 1022.6 hPa SW 1.6 km/h 8.0 km/h 67 % 0.0 mm
19:57 13.2 °C 7.4 °C 1022.6 hPa Calm   8.0 km/h 68 % 0.0 mm
20:02 13.0 °C 7.4 °C 1022.6 hPa Calm   6.4 km/h 69 % 0.0 mm
20:07 12.9 °C 7.6 °C 1022.6 hPa Calm   4.8 km/h 70 % 0.0 mm
20:17 12.9 °C 7.6 °C 1022.6 hPa Calm   3.2 km/h 70 % 0.0 mm
20:22 12.8 °C 7.7 °C 1022.2 hPa SW 1.6 km/h 3.2 km/h 71 % 0.0 mm
20:27 12.7 °C 7.6 °C 1022.2 hPa Calm   6.4 km/h 71 % 0.0 mm
20:32 12.6 °C 7.5 °C 1022.2 hPa WSW 1.6 km/h 6.4 km/h 71 % 0.0 mm
20:37 12.6 °C 7.5 °C 1022.2 hPa Calm   6.4 km/h 71 % 0.0 mm
20:42 12.4 °C 7.5 °C 1022.2 hPa Calm   4.8 km/h 72 % 0.0 mm
20:47 12.2 °C 7.5 °C 1022.2 hPa Calm   4.8 km/h 73 % 0.0 mm
20:52 12.1 °C 7.6 °C 1022.2 hPa Calm   3.2 km/h 74 % 0.0 mm
20:57 11.8 °C 7.7 °C 1022.2 hPa Calm   1.6 km/h 76 % 0.0 mm
21:02 11.6 °C 7.7 °C 1022.2 hPa Calm     77 % 0.0 mm
21:07 11.6 °C 7.5 °C 1022.2 hPa Calm   1.6 km/h 76 % 0.0 mm
21:12 11.7 °C 7.6 °C 1022.2 hPa Calm   1.6 km/h 76 % 0.0 mm
21:17 11.7 °C 7.6 °C 1022.2 hPa Calm   1.6 km/h 76 % 0.0 mm
21:22 11.7 °C 7.6 °C 1021.9 hPa Calm   1.6 km/h 76 % 0.0 mm
21:27 11.7 °C 7.6 °C 1021.9 hPa ESE 1.6 km/h 1.6 km/h 76 % 0.0 mm
21:32 11.6 °C 7.5 °C 1021.9 hPa SSE 1.6 km/h 1.6 km/h 76 % 0.0 mm
21:37 11.6 °C 7.5 °C 1021.9 hPa SE 1.6 km/h 1.6 km/h 76 % 0.0 mm
21:42 11.6 °C 7.5 °C 1021.9 hPa SSE 1.6 km/h 3.2 km/h 76 % 0.0 mm
21:57 11.9 °C 7.4 °C 1021.6 hPa SW 3.2 km/h 9.7 km/h 74 % 0.0 mm
22:02 12.1 °C 7.6 °C 1021.6 hPa WSW 9.7 km/h 9.7 km/h 74 % 0.0 mm
22:07 12.2 °C 7.5 °C 1021.6 hPa WSW 6.4 km/h 11.3 km/h 73 % 0.0 mm
22:12 12.2 °C 7.5 °C 1021.6 hPa SW 6.4 km/h 12.9 km/h 73 % 0.0 mm
22:17 12.2 °C 7.5 °C 1021.9 hPa WSW 6.4 km/h 12.9 km/h 73 % 0.0 mm
22:22 12.2 °C 7.5 °C 1021.9 hPa West 1.6 km/h 12.9 km/h 73 % 0.0 mm
22:32 12.3 °C 7.6 °C 1021.6 hPa WSW 4.8 km/h 12.9 km/h 73 % 0.0 mm
22:37 12.4 °C 7.7 °C 1021.6 hPa WSW 4.8 km/h 11.3 km/h 73 % 0.0 mm
22:42 12.4 °C 7.7 °C 1021.6 hPa WSW 6.4 km/h 12.9 km/h 73 % 0.0 mm
22:47 12.4 °C 7.7 °C 1021.9 hPa West 3.2 km/h 14.5 km/h 73 % 0.0 mm
22:52 12.4 °C 7.7 °C 1021.6 hPa SW 3.2 km/h 14.5 km/h 73 % 0.0 mm
22:57 12.5 °C 7.6 °C 1021.6 hPa WSW 3.2 km/h 9.7 km/h 72 % 0.0 mm
23:02 12.6 °C 7.7 °C 1021.6 hPa WSW 8.0 km/h 11.3 km/h 72 % 0.0 mm
23:07 12.5 °C 7.6 °C 1021.6 hPa SW 4.8 km/h 11.3 km/h 72 % 0.0 mm
23:12 12.4 °C 7.7 °C 1021.6 hPa WSW 4.8 km/h 11.3 km/h 73 % 0.0 mm
23:17 12.3 °C 7.6 °C 1021.9 hPa SW 3.2 km/h 11.3 km/h 73 % 0.0 mm
23:22 12.2 °C 7.7 °C 1021.9 hPa WSW 3.2 km/h 11.3 km/h 74 % 0.0 mm
23:27 12.2 °C 7.7 °C 1021.9 hPa West 1.6 km/h 8.0 km/h 74 % 0.0 mm
23:32 12.2 °C 7.7 °C 1021.9 hPa WSW 4.8 km/h 9.7 km/h 74 % 0.0 mm
23:37 12.2 °C 7.7 °C 1021.9 hPa SW 8.0 km/h 14.5 km/h 74 % 0.0 mm
23:42 12.2 °C 7.7 °C 1021.6 hPa West 4.8 km/h 14.5 km/h 74 % 0.0 mm
23:47 12.2 °C 7.9 °C 1021.9 hPa WNW 8.0 km/h 14.5 km/h 75 % 0.0 mm
23:52 11.9 °C 8.0 °C 1021.9 hPa WNW 1.6 km/h 11.3 km/h 77 % 0.5 mm
23:57 11.7 °C 8.2 °C 1021.9 hPa Calm   11.3 km/h 79 % 0.5 mm
Meteo18
Compliments of Weather Underground - 4 mb

Script developed by  Jim McMurry - jmcmurry@mwt.net Adapted for the template by  Wim van der Kuil - Leuven-Template.eu

You find our weather info also at:

European Weather Network

Weather Underground

Equipment we use:

Weather-station
Davis Vue

Weather-program
Meteohub

Weather-server
Raspberry PI 2 B+

Provider
1 and 1

Davis Vue

Meteohub

Raspberry PI 2 B+

1 and 1